sensor_id;sensor_type;location;lat;lon;timestamp;P1;durP1;ratioP1;P2;durP2;ratioP2
21657;SDS011;10990;48.174;9.782;2023-12-20T00:00:09;3.90;;;2.20;;
21657;SDS011;10990;48.174;9.782;2023-12-20T00:02:36;4.37;;;2.50;;
21657;SDS011;10990;48.174;9.782;2023-12-20T00:05:03;5.03;;;2.10;;
21657;SDS011;10990;48.174;9.782;2023-12-20T00:07:33;3.80;;;2.50;;
21657;SDS011;10990;48.174;9.782;2023-12-20T00:09:59;2.93;;;2.13;;
21657;SDS011;10990;48.174;9.782;2023-12-20T00:12:25;3.43;;;2.20;;
21657;SDS011;10990;48.174;9.782;2023-12-20T00:14:51;3.50;;;2.20;;
21657;SDS011;10990;48.174;9.782;2023-12-20T00:17:18;2.97;;;2.10;;
21657;SDS011;10990;48.174;9.782;2023-12-20T00:19:44;2.80;;;2.10;;
21657;SDS011;10990;48.174;9.782;2023-12-20T00:22:10;3.43;;;2.20;;
21657;SDS011;10990;48.174;9.782;2023-12-20T00:24:39;3.10;;;2.20;;
21657;SDS011;10990;48.174;9.782;2023-12-20T00:27:06;3.33;;;2.10;;
21657;SDS011;10990;48.174;9.782;2023-12-20T00:29:32;3.60;;;2.17;;
21657;SDS011;10990;48.174;9.782;2023-12-20T00:31:58;2.73;;;1.97;;
21657;SDS011;10990;48.174;9.782;2023-12-20T00:34:25;2.83;;;2.00;;
21657;SDS011;10990;48.174;9.782;2023-12-20T00:36:53;3.50;;;2.40;;
21657;SDS011;10990;48.174;9.782;2023-12-20T00:39:20;2.60;;;2.10;;
21657;SDS011;10990;48.174;9.782;2023-12-20T00:41:49;3.17;;;2.40;;
21657;SDS011;10990;48.174;9.782;2023-12-20T00:44:15;3.00;;;2.00;;
21657;SDS011;10990;48.174;9.782;2023-12-20T00:46:41;3.03;;;2.30;;
21657;SDS011;10990;48.174;9.782;2023-12-20T00:49:08;2.87;;;2.10;;
21657;SDS011;10990;48.174;9.782;2023-12-20T00:51:34;2.90;;;2.23;;
21657;SDS011;10990;48.174;9.782;2023-12-20T00:54:00;2.33;;;1.97;;
21657;SDS011;10990;48.174;9.782;2023-12-20T00:56:27;4.33;;;2.17;;
21657;SDS011;10990;48.174;9.782;2023-12-20T00:58:56;2.73;;;2.07;;
21657;SDS011;10990;48.174;9.782;2023-12-20T01:01:22;3.40;;;2.30;;
21657;SDS011;10990;48.174;9.782;2023-12-20T01:03:48;2.57;;;1.83;;
21657;SDS011;10990;48.174;9.782;2023-12-20T01:06:15;3.00;;;2.20;;
21657;SDS011;10990;48.174;9.782;2023-12-20T01:08:41;3.73;;;2.43;;
21657;SDS011;10990;48.174;9.782;2023-12-20T01:11:07;2.43;;;1.83;;
21657;SDS011;10990;48.174;9.782;2023-12-20T01:13:34;3.67;;;2.10;;
21657;SDS011;10990;48.174;9.782;2023-12-20T01:16:03;3.47;;;2.30;;
21657;SDS011;10990;48.174;9.782;2023-12-20T01:18:29;3.00;;;2.20;;
21657;SDS011;10990;48.174;9.782;2023-12-20T01:20:56;2.37;;;2.10;;
21657;SDS011;10990;48.174;9.782;2023-12-20T01:23:26;2.60;;;2.00;;
21657;SDS011;10990;48.174;9.782;2023-12-20T01:25:52;2.90;;;2.10;;
21657;SDS011;10990;48.174;9.782;2023-12-20T01:28:19;2.93;;;2.17;;
21657;SDS011;10990;48.174;9.782;2023-12-20T01:30:45;3.83;;;2.60;;
21657;SDS011;10990;48.174;9.782;2023-12-20T01:33:14;3.37;;;2.07;;
21657;SDS011;10990;48.174;9.782;2023-12-20T01:35:40;4.33;;;2.13;;
21657;SDS011;10990;48.174;9.782;2023-12-20T01:38:07;3.23;;;2.13;;
21657;SDS011;10990;48.174;9.782;2023-12-20T01:40:34;3.67;;;2.50;;
21657;SDS011;10990;48.174;9.782;2023-12-20T01:43:01;4.20;;;2.40;;
21657;SDS011;10990;48.174;9.782;2023-12-20T01:45:30;3.67;;;2.57;;
21657;SDS011;10990;48.174;9.782;2023-12-20T01:47:57;3.33;;;2.37;;
21657;SDS011;10990;48.174;9.782;2023-12-20T01:50:28;4.13;;;2.23;;
21657;SDS011;10990;48.174;9.782;2023-12-20T01:52:55;3.53;;;2.40;;
21657;SDS011;10990;48.174;9.782;2023-12-20T01:55:25;4.10;;;2.70;;
21657;SDS011;10990;48.174;9.782;2023-12-20T01:57:52;4.17;;;2.33;;
21657;SDS011;10990;48.174;9.782;2023-12-20T02:00:19;3.03;;;2.40;;
21657;SDS011;10990;48.174;9.782;2023-12-20T02:02:48;3.13;;;2.10;;
21657;SDS011;10990;48.174;9.782;2023-12-20T02:05:16;3.80;;;2.40;;
21657;SDS011;10990;48.174;9.782;2023-12-20T02:07:45;3.80;;;2.40;;
21657;SDS011;10990;48.174;9.782;2023-12-20T02:10:11;2.93;;;2.50;;
21657;SDS011;10990;48.174;9.782;2023-12-20T02:12:37;2.57;;;2.20;;
21657;SDS011;10990;48.174;9.782;2023-12-20T02:15:04;3.17;;;2.10;;
21657;SDS011;10990;48.174;9.782;2023-12-20T02:17:31;3.03;;;2.27;;
21657;SDS011;10990;48.174;9.782;2023-12-20T02:19:58;2.80;;;2.20;;
21657;SDS011;10990;48.174;9.782;2023-12-20T02:22:27;3.00;;;2.30;;
21657;SDS011;10990;48.174;9.782;2023-12-20T02:24:53;3.37;;;2.53;;
21657;SDS011;10990;48.174;9.782;2023-12-20T02:27:19;3.10;;;2.20;;
21657;SDS011;10990;48.174;9.782;2023-12-20T02:29:47;2.77;;;2.33;;
21657;SDS011;10990;48.174;9.782;2023-12-20T02:32:13;3.17;;;2.40;;
21657;SDS011;10990;48.174;9.782;2023-12-20T02:34:39;3.40;;;2.40;;
21657;SDS011;10990;48.174;9.782;2023-12-20T02:37:06;3.23;;;2.10;;
21657;SDS011;10990;48.174;9.782;2023-12-20T02:39:34;3.17;;;2.13;;
21657;SDS011;10990;48.174;9.782;2023-12-20T02:42:01;3.00;;;2.13;;
21657;SDS011;10990;48.174;9.782;2023-12-20T02:44:27;3.40;;;2.70;;
21657;SDS011;10990;48.174;9.782;2023-12-20T02:46:53;3.10;;;2.20;;
21657;SDS011;10990;48.174;9.782;2023-12-20T02:49:19;2.70;;;2.07;;
21657;SDS011;10990;48.174;9.782;2023-12-20T02:51:45;3.07;;;2.03;;
21657;SDS011;10990;48.174;9.782;2023-12-20T02:54:12;3.00;;;2.20;;
21657;SDS011;10990;48.174;9.782;2023-12-20T02:56:40;2.37;;;1.73;;
21657;SDS011;10990;48.174;9.782;2023-12-20T02:59:07;3.53;;;2.07;;
21657;SDS011;10990;48.174;9.782;2023-12-20T03:01:33;2.07;;;1.70;;
21657;SDS011;10990;48.174;9.782;2023-12-20T03:04:00;1.57;;;1.40;;
21657;SDS011;10990;48.174;9.782;2023-12-20T03:06:26;1.70;;;1.47;;
21657;SDS011;10990;48.174;9.782;2023-12-20T03:08:52;2.13;;;1.47;;
21657;SDS011;10990;48.174;9.782;2023-12-20T03:11:18;2.27;;;1.40;;
21657;SDS011;10990;48.174;9.782;2023-12-20T03:13:47;2.13;;;1.40;;
21657;SDS011;10990;48.174;9.782;2023-12-20T03:16:13;1.80;;;1.40;;
21657;SDS011;10990;48.174;9.782;2023-12-20T03:18:39;1.43;;;1.30;;
21657;SDS011;10990;48.174;9.782;2023-12-20T03:21:06;1.80;;;1.50;;
21657;SDS011;10990;48.174;9.782;2023-12-20T03:23:32;2.10;;;1.40;;
21657;SDS011;10990;48.174;9.782;2023-12-20T03:25:58;1.60;;;1.50;;
21657;SDS011;10990;48.174;9.782;2023-12-20T03:28:25;2.00;;;1.20;;
21657;SDS011;10990;48.174;9.782;2023-12-20T03:30:54;1.23;;;1.10;;
21657;SDS011;10990;48.174;9.782;2023-12-20T03:33:20;1.30;;;1.20;;
21657;SDS011;10990;48.174;9.782;2023-12-20T03:35:46;2.17;;;1.10;;
21657;SDS011;10990;48.174;9.782;2023-12-20T03:38:12;3.03;;;1.30;;
21657;SDS011;10990;48.174;9.782;2023-12-20T03:40:39;1.40;;;1.30;;
21657;SDS011;10990;48.174;9.782;2023-12-20T03:43:05;1.80;;;1.40;;
21657;SDS011;10990;48.174;9.782;2023-12-20T03:45:31;2.57;;;1.80;;
21657;SDS011;10990;48.174;9.782;2023-12-20T03:48:00;3.40;;;1.70;;
21657;SDS011;10990;48.174;9.782;2023-12-20T03:50:26;1.93;;;1.30;;
21657;SDS011;10990;48.174;9.782;2023-12-20T03:52:52;2.57;;;1.60;;
21657;SDS011;10990;48.174;9.782;2023-12-20T03:55:18;1.50;;;1.17;;
21657;SDS011;10990;48.174;9.782;2023-12-20T03:57:45;2.47;;;1.57;;
21657;SDS011;10990;48.174;9.782;2023-12-20T04:00:11;2.67;;;1.50;;
21657;SDS011;10990;48.174;9.782;2023-12-20T04:02:40;3.23;;;1.53;;
21657;SDS011;10990;48.174;9.782;2023-12-20T04:05:11;1.97;;;1.67;;
21657;SDS011;10990;48.174;9.782;2023-12-20T04:07:37;3.07;;;1.60;;
21657;SDS011;10990;48.174;9.782;2023-12-20T04:10:04;1.63;;;1.50;;
21657;SDS011;10990;48.174;9.782;2023-12-20T04:12:32;3.53;;;1.90;;
21657;SDS011;10990;48.174;9.782;2023-12-20T04:14:58;2.53;;;1.80;;
21657;SDS011;10990;48.174;9.782;2023-12-20T04:17:25;3.10;;;1.73;;
21657;SDS011;10990;48.174;9.782;2023-12-20T04:19:51;3.07;;;1.90;;
21657;SDS011;10990;48.174;9.782;2023-12-20T04:22:20;2.80;;;2.00;;
21657;SDS011;10990;48.174;9.782;2023-12-20T04:24:46;2.37;;;1.63;;
21657;SDS011;10990;48.174;9.782;2023-12-20T04:27:12;4.20;;;2.03;;
21657;SDS011;10990;48.174;9.782;2023-12-20T04:29:39;3.13;;;2.20;;
21657;SDS011;10990;48.174;9.782;2023-12-20T04:32:05;3.20;;;1.90;;
21657;SDS011;10990;48.174;9.782;2023-12-20T04:34:32;2.67;;;1.83;;
21657;SDS011;10990;48.174;9.782;2023-12-20T04:36:58;3.13;;;2.00;;
21657;SDS011;10990;48.174;9.782;2023-12-20T04:39:27;4.33;;;2.17;;
21657;SDS011;10990;48.174;9.782;2023-12-20T04:41:54;2.60;;;2.00;;
21657;SDS011;10990;48.174;9.782;2023-12-20T04:44:20;3.50;;;2.20;;
21657;SDS011;10990;48.174;9.782;2023-12-20T04:46:46;2.83;;;2.00;;
21657;SDS011;10990;48.174;9.782;2023-12-20T04:49:12;3.23;;;2.00;;
21657;SDS011;10990;48.174;9.782;2023-12-20T04:51:39;4.30;;;2.10;;
21657;SDS011;10990;48.174;9.782;2023-12-20T04:54:05;3.77;;;2.23;;
21657;SDS011;10990;48.174;9.782;2023-12-20T04:56:34;2.47;;;1.90;;
21657;SDS011;10990;48.174;9.782;2023-12-20T04:59:00;2.93;;;2.30;;
21657;SDS011;10990;48.174;9.782;2023-12-20T05:01:26;3.20;;;2.23;;
21657;SDS011;10990;48.174;9.782;2023-12-20T05:03:53;4.53;;;2.60;;
21657;SDS011;10990;48.174;9.782;2023-12-20T05:06:19;3.53;;;2.70;;
21657;SDS011;10990;48.174;9.782;2023-12-20T05:08:45;3.77;;;2.90;;
21657;SDS011;10990;48.174;9.782;2023-12-20T05:11:11;4.80;;;2.87;;
21657;SDS011;10990;48.174;9.782;2023-12-20T05:13:40;5.00;;;2.80;;
21657;SDS011;10990;48.174;9.782;2023-12-20T05:16:06;4.37;;;3.17;;
21657;SDS011;10990;48.174;9.782;2023-12-20T05:18:32;5.10;;;3.23;;
21657;SDS011;10990;48.174;9.782;2023-12-20T05:20:58;5.13;;;3.20;;
21657;SDS011;10990;48.174;9.782;2023-12-20T05:23:25;4.17;;;3.00;;
21657;SDS011;10990;48.174;9.782;2023-12-20T05:25:51;4.00;;;3.30;;
21657;SDS011;10990;48.174;9.782;2023-12-20T05:28:17;4.70;;;3.20;;
21657;SDS011;10990;48.174;9.782;2023-12-20T05:30:46;5.53;;;3.77;;
21657;SDS011;10990;48.174;9.782;2023-12-20T05:33:12;5.47;;;4.03;;
21657;SDS011;10990;48.174;9.782;2023-12-20T05:35:38;4.80;;;3.20;;
21657;SDS011;10990;48.174;9.782;2023-12-20T05:38:04;5.67;;;3.50;;
21657;SDS011;10990;48.174;9.782;2023-12-20T05:40:30;5.73;;;4.10;;
21657;SDS011;10990;48.174;9.782;2023-12-20T05:42:56;7.60;;;4.10;;
21657;SDS011;10990;48.174;9.782;2023-12-20T05:45:23;5.10;;;3.90;;
21657;SDS011;10990;48.174;9.782;2023-12-20T05:47:51;6.53;;;4.27;;
21657;SDS011;10990;48.174;9.782;2023-12-20T05:50:17;5.63;;;3.73;;
21657;SDS011;10990;48.174;9.782;2023-12-20T05:52:44;5.93;;;4.03;;
21657;SDS011;10990;48.174;9.782;2023-12-20T05:55:10;6.10;;;3.80;;
21657;SDS011;10990;48.174;9.782;2023-12-20T05:57:36;5.83;;;3.80;;
21657;SDS011;10990;48.174;9.782;2023-12-20T06:00:02;6.13;;;3.63;;
21657;SDS011;10990;48.174;9.782;2023-12-20T06:02:37;5.20;;;3.77;;
21657;SDS011;10990;48.174;9.782;2023-12-20T06:05:06;6.53;;;4.07;;
21657;SDS011;10990;48.174;9.782;2023-12-20T06:07:33;5.67;;;4.20;;
21657;SDS011;10990;48.174;9.782;2023-12-20T06:09:59;6.47;;;3.97;;
21657;SDS011;10990;48.174;9.782;2023-12-20T06:12:25;6.03;;;3.80;;
21657;SDS011;10990;48.174;9.782;2023-12-20T06:14:51;6.27;;;3.80;;
21657;SDS011;10990;48.174;9.782;2023-12-20T06:17:18;6.57;;;4.30;;
21657;SDS011;10990;48.174;9.782;2023-12-20T06:19:44;7.40;;;4.17;;
21657;SDS011;10990;48.174;9.782;2023-12-20T06:22:13;5.90;;;4.10;;
21657;SDS011;10990;48.174;9.782;2023-12-20T06:24:39;6.73;;;4.00;;
21657;SDS011;10990;48.174;9.782;2023-12-20T06:27:05;6.93;;;4.50;;
21657;SDS011;10990;48.174;9.782;2023-12-20T06:29:32;7.77;;;4.73;;
21657;SDS011;10990;48.174;9.782;2023-12-20T06:31:58;7.13;;;4.17;;
21657;SDS011;10990;48.174;9.782;2023-12-20T06:34:24;7.20;;;4.53;;
21657;SDS011;10990;48.174;9.782;2023-12-20T06:36:50;7.27;;;4.60;;
21657;SDS011;10990;48.174;9.782;2023-12-20T06:39:19;6.23;;;4.47;;
21657;SDS011;10990;48.174;9.782;2023-12-20T06:41:45;7.47;;;4.63;;
21657;SDS011;10990;48.174;9.782;2023-12-20T06:44:11;6.33;;;4.27;;
21657;SDS011;10990;48.174;9.782;2023-12-20T06:46:37;6.87;;;4.80;;
21657;SDS011;10990;48.174;9.782;2023-12-20T06:49:03;5.93;;;3.80;;
21657;SDS011;10990;48.174;9.782;2023-12-20T06:51:30;7.80;;;5.17;;
21657;SDS011;10990;48.174;9.782;2023-12-20T06:53:56;6.90;;;4.60;;
21657;SDS011;10990;48.174;9.782;2023-12-20T06:56:25;7.27;;;4.80;;
21657;SDS011;10990;48.174;9.782;2023-12-20T06:58:51;6.07;;;4.40;;
21657;SDS011;10990;48.174;9.782;2023-12-20T07:01:17;7.27;;;4.70;;
21657;SDS011;10990;48.174;9.782;2023-12-20T07:03:43;7.97;;;5.13;;
21657;SDS011;10990;48.174;9.782;2023-12-20T07:06:09;6.30;;;4.47;;
21657;SDS011;10990;48.174;9.782;2023-12-20T07:08:35;7.07;;;4.17;;
21657;SDS011;10990;48.174;9.782;2023-12-20T07:11:01;7.47;;;4.30;;
21657;SDS011;10990;48.174;9.782;2023-12-20T07:13:30;6.00;;;4.50;;
21657;SDS011;10990;48.174;9.782;2023-12-20T07:15:57;7.03;;;4.47;;
21657;SDS011;10990;48.174;9.782;2023-12-20T07:18:23;7.67;;;4.67;;
21657;SDS011;10990;48.174;9.782;2023-12-20T07:20:49;6.83;;;4.57;;
21657;SDS011;10990;48.174;9.782;2023-12-20T07:23:15;6.70;;;4.30;;
21657;SDS011;10990;48.174;9.782;2023-12-20T07:25:41;6.60;;;4.20;;
21657;SDS011;10990;48.174;9.782;2023-12-20T07:28:08;5.87;;;4.30;;
21657;SDS011;10990;48.174;9.782;2023-12-20T07:30:36;7.20;;;4.60;;
21657;SDS011;10990;48.174;9.782;2023-12-20T07:33:03;7.20;;;4.60;;
21657;SDS011;10990;48.174;9.782;2023-12-20T07:35:30;6.60;;;4.53;;
21657;SDS011;10990;48.174;9.782;2023-12-20T07:37:56;5.87;;;4.80;;
21657;SDS011;10990;48.174;9.782;2023-12-20T07:40:22;6.73;;;4.60;;
21657;SDS011;10990;48.174;9.782;2023-12-20T07:42:48;7.50;;;5.10;;
21657;SDS011;10990;48.174;9.782;2023-12-20T07:45:14;6.63;;;5.10;;
21657;SDS011;10990;48.174;9.782;2023-12-20T07:47:43;7.10;;;5.13;;
21657;SDS011;10990;48.174;9.782;2023-12-20T07:50:10;6.30;;;4.87;;
21657;SDS011;10990;48.174;9.782;2023-12-20T07:52:37;7.50;;;4.90;;
21657;SDS011;10990;48.174;9.782;2023-12-20T07:55:04;8.43;;;5.60;;
21657;SDS011;10990;48.174;9.782;2023-12-20T07:57:30;7.07;;;5.00;;
21657;SDS011;10990;48.174;9.782;2023-12-20T07:59:56;7.10;;;5.00;;
21657;SDS011;10990;48.174;9.782;2023-12-20T08:02:23;6.80;;;5.10;;
21657;SDS011;10990;48.174;9.782;2023-12-20T08:04:51;8.03;;;5.70;;
21657;SDS011;10990;48.174;9.782;2023-12-20T08:07:18;8.37;;;5.40;;
21657;SDS011;10990;48.174;9.782;2023-12-20T08:09:44;7.30;;;5.50;;
21657;SDS011;10990;48.174;9.782;2023-12-20T08:12:10;7.10;;;5.20;;
21657;SDS011;10990;48.174;9.782;2023-12-20T08:14:36;7.30;;;5.10;;
21657;SDS011;10990;48.174;9.782;2023-12-20T08:17:02;6.67;;;4.90;;
21657;SDS011;10990;48.174;9.782;2023-12-20T08:19:29;7.07;;;5.40;;
21657;SDS011;10990;48.174;9.782;2023-12-20T08:21:57;6.60;;;5.10;;
21657;SDS011;10990;48.174;9.782;2023-12-20T08:24:24;7.70;;;5.53;;
21657;SDS011;10990;48.174;9.782;2023-12-20T08:26:50;6.87;;;5.43;;
21657;SDS011;10990;48.174;9.782;2023-12-20T08:29:16;7.87;;;5.50;;
21657;SDS011;10990;48.174;9.782;2023-12-20T08:31:42;7.47;;;5.13;;
21657;SDS011;10990;48.174;9.782;2023-12-20T08:34:08;8.83;;;5.43;;
21657;SDS011;10990;48.174;9.782;2023-12-20T08:36:34;8.00;;;5.50;;
21657;SDS011;10990;48.174;9.782;2023-12-20T08:39:03;7.23;;;5.37;;
21657;SDS011;10990;48.174;9.782;2023-12-20T08:41:29;7.43;;;5.20;;
21657;SDS011;10990;48.174;9.782;2023-12-20T08:43:55;7.70;;;5.77;;
21657;SDS011;10990;48.174;9.782;2023-12-20T08:46:22;7.67;;;5.53;;
21657;SDS011;10990;48.174;9.782;2023-12-20T08:48:48;9.60;;;6.17;;
21657;SDS011;10990;48.174;9.782;2023-12-20T08:51:14;7.53;;;5.00;;
21657;SDS011;10990;48.174;9.782;2023-12-20T08:53:40;7.10;;;5.00;;
21657;SDS011;10990;48.174;9.782;2023-12-20T08:56:09;9.20;;;5.17;;
21657;SDS011;10990;48.174;9.782;2023-12-20T08:58:35;8.07;;;5.23;;
21657;SDS011;10990;48.174;9.782;2023-12-20T09:01:01;8.17;;;5.40;;
21657;SDS011;10990;48.174;9.782;2023-12-20T09:03:28;6.60;;;4.80;;
21657;SDS011;10990;48.174;9.782;2023-12-20T09:05:54;9.03;;;4.77;;
21657;SDS011;10990;48.174;9.782;2023-12-20T09:08:20;6.97;;;4.73;;
21657;SDS011;10990;48.174;9.782;2023-12-20T09:10:46;5.63;;;4.07;;
21657;SDS011;10990;48.174;9.782;2023-12-20T09:13:15;7.67;;;4.70;;
21657;SDS011;10990;48.174;9.782;2023-12-20T09:15:41;5.33;;;3.60;;
21657;SDS011;10990;48.174;9.782;2023-12-20T09:18:08;6.33;;;4.13;;
21657;SDS011;10990;48.174;9.782;2023-12-20T09:20:34;4.90;;;3.90;;
21657;SDS011;10990;48.174;9.782;2023-12-20T09:23:00;5.00;;;3.53;;
21657;SDS011;10990;48.174;9.782;2023-12-20T09:25:26;5.10;;;3.90;;
21657;SDS011;10990;48.174;9.782;2023-12-20T09:27:52;4.87;;;3.60;;
21657;SDS011;10990;48.174;9.782;2023-12-20T09:30:21;4.70;;;3.67;;
21657;SDS011;10990;48.174;9.782;2023-12-20T09:32:47;4.60;;;3.60;;
21657;SDS011;10990;48.174;9.782;2023-12-20T09:35:14;4.60;;;3.50;;
21657;SDS011;10990;48.174;9.782;2023-12-20T09:37:40;5.00;;;3.63;;
21657;SDS011;10990;48.174;9.782;2023-12-20T09:40:06;5.07;;;3.73;;
21657;SDS011;10990;48.174;9.782;2023-12-20T09:42:37;5.07;;;3.50;;
21657;SDS011;10990;48.174;9.782;2023-12-20T09:45:09;6.80;;;4.10;;
21657;SDS011;10990;48.174;9.782;2023-12-20T09:47:39;5.87;;;3.80;;
21657;SDS011;10990;48.174;9.782;2023-12-20T09:50:06;4.70;;;3.70;;
21657;SDS011;10990;48.174;9.782;2023-12-20T09:52:33;5.33;;;3.93;;
21657;SDS011;10990;48.174;9.782;2023-12-20T09:55:01;3.23;;;2.90;;
21657;SDS011;10990;48.174;9.782;2023-12-20T09:57:29;3.73;;;3.10;;
21657;SDS011;10990;48.174;9.782;2023-12-20T09:59:55;3.15;;;2.50;;
21657;SDS011;10990;48.174;9.782;2023-12-20T10:02:22;3.70;;;2.75;;
21657;SDS011;10990;48.174;9.782;2023-12-20T10:04:54;2.50;;;2.30;;
21657;SDS011;10990;48.174;9.782;2023-12-20T10:07:20;2.60;;;2.20;;
21657;SDS011;10990;48.174;9.782;2023-12-20T10:09:47;2.15;;;1.92;;
21657;SDS011;10990;48.174;9.782;2023-12-20T10:12:13;2.15;;;1.90;;
21657;SDS011;10990;48.174;9.782;2023-12-20T10:14:39;2.08;;;1.70;;
21657;SDS011;10990;48.174;9.782;2023-12-20T10:17:06;2.97;;;1.92;;
21657;SDS011;10990;48.174;9.782;2023-12-20T10:19:32;1.70;;;1.60;;
21657;SDS011;10990;48.174;9.782;2023-12-20T10:22:03;2.13;;;1.70;;
21657;SDS011;10990;48.174;9.782;2023-12-20T10:24:30;1.80;;;1.70;;
21657;SDS011;10990;48.174;9.782;2023-12-20T10:27:03;1.77;;;1.67;;
21657;SDS011;10990;48.174;9.782;2023-12-20T10:29:31;1.48;;;1.35;;
21657;SDS011;10990;48.174;9.782;2023-12-20T10:31:58;1.40;;;1.30;;
21657;SDS011;10990;48.174;9.782;2023-12-20T10:34:24;1.40;;;1.30;;
21657;SDS011;10990;48.174;9.782;2023-12-20T10:36:51;1.50;;;1.40;;
21657;SDS011;10990;48.174;9.782;2023-12-20T10:39:20;2.15;;;1.30;;
21657;SDS011;10990;48.174;9.782;2023-12-20T10:41:47;1.30;;;1.10;;
21657;SDS011;10990;48.174;9.782;2023-12-20T10:44:14;1.40;;;1.30;;
21657;SDS011;10990;48.174;9.782;2023-12-20T10:46:40;1.50;;;1.40;;
21657;SDS011;10990;48.174;9.782;2023-12-20T10:49:07;1.50;;;1.40;;
21657;SDS011;10990;48.174;9.782;2023-12-20T10:51:35;2.00;;;1.53;;
21657;SDS011;10990;48.174;9.782;2023-12-20T10:54:02;1.88;;;1.50;;
21657;SDS011;10990;48.174;9.782;2023-12-20T10:56:32;2.03;;;1.60;;
21657;SDS011;10990;48.174;9.782;2023-12-20T10:58:58;1.60;;;1.50;;
21657;SDS011;10990;48.174;9.782;2023-12-20T11:01:28;1.93;;;1.60;;
21657;SDS011;10990;48.174;9.782;2023-12-20T11:03:55;1.20;;;1.10;;
21657;SDS011;10990;48.174;9.782;2023-12-20T11:06:33;1.20;;;0.60;;
21657;SDS011;10990;48.174;9.782;2023-12-20T11:09:08;0.60;;;0.60;;
21657;SDS011;10990;48.174;9.782;2023-12-20T11:11:46;0.30;;;0.30;;
21657;SDS011;10990;48.174;9.782;2023-12-20T11:14:26;2.20;;;0.30;;
21657;SDS011;10990;48.174;9.782;2023-12-20T11:17:06;0.20;;;0.20;;
21657;SDS011;10990;48.174;9.782;2023-12-20T11:19:35;0.13;;;0.13;;
21657;SDS011;10990;48.174;9.782;2023-12-20T11:22:03;0.30;;;0.30;;
21657;SDS011;10990;48.174;9.782;2023-12-20T11:24:29;0.20;;;0.20;;
21657;SDS011;10990;48.174;9.782;2023-12-20T11:26:59;0.20;;;0.20;;
21657;SDS011;10990;48.174;9.782;2023-12-20T11:29:32;0.20;;;0.20;;
21657;SDS011;10990;48.174;9.782;2023-12-20T11:32:00;0.20;;;0.20;;
21657;SDS011;10990;48.174;9.782;2023-12-20T11:34:27;0.10;;;0.10;;
21657;SDS011;10990;48.174;9.782;2023-12-20T11:36:57;0.33;;;0.33;;
21657;SDS011;10990;48.174;9.782;2023-12-20T11:39:23;0.53;;;0.40;;
21657;SDS011;10990;48.174;9.782;2023-12-20T11:41:51;0.30;;;0.30;;
21657;SDS011;10990;48.174;9.782;2023-12-20T11:44:21;1.07;;;0.40;;
21657;SDS011;10990;48.174;9.782;2023-12-20T11:46:48;0.40;;;0.40;;
21657;SDS011;10990;48.174;9.782;2023-12-20T11:49:14;0.73;;;0.60;;
21657;SDS011;10990;48.174;9.782;2023-12-20T11:51:41;0.77;;;0.57;;
21657;SDS011;10990;48.174;9.782;2023-12-20T11:54:07;2.17;;;0.60;;
21657;SDS011;10990;48.174;9.782;2023-12-20T11:56:33;0.53;;;0.50;;
21657;SDS011;10990;48.174;9.782;2023-12-20T11:58:59;0.70;;;0.60;;
21657;SDS011;10990;48.174;9.782;2023-12-20T12:01:28;1.00;;;0.50;;
21657;SDS011;10990;48.174;9.782;2023-12-20T12:04:02;1.23;;;0.70;;
21657;SDS011;10990;48.174;9.782;2023-12-20T12:06:28;0.93;;;0.93;;
21657;SDS011;10990;48.174;9.782;2023-12-20T12:08:54;1.43;;;0.70;;
21657;SDS011;10990;48.174;9.782;2023-12-20T12:11:21;0.60;;;0.60;;
21657;SDS011;10990;48.174;9.782;2023-12-20T12:13:47;1.40;;;0.70;;
21657;SDS011;10990;48.174;9.782;2023-12-20T12:16:16;0.60;;;0.60;;
21657;SDS011;10990;48.174;9.782;2023-12-20T12:18:45;1.83;;;0.70;;
21657;SDS011;10990;48.174;9.782;2023-12-20T12:21:18;0.77;;;0.70;;
21657;SDS011;10990;48.174;9.782;2023-12-20T12:23:45;1.50;;;0.70;;
21657;SDS011;10990;48.174;9.782;2023-12-20T12:26:11;1.83;;;0.77;;
21657;SDS011;10990;48.174;9.782;2023-12-20T12:28:39;1.27;;;0.60;;
21657;SDS011;10990;48.174;9.782;2023-12-20T12:31:06;0.70;;;0.70;;
21657;SDS011;10990;48.174;9.782;2023-12-20T12:33:32;0.70;;;0.60;;
21657;SDS011;10990;48.174;9.782;2023-12-20T12:36:02;1.07;;;0.50;;
21657;SDS011;10990;48.174;9.782;2023-12-20T12:38:29;0.40;;;0.40;;
21657;SDS011;10990;48.174;9.782;2023-12-20T12:40:56;0.57;;;0.50;;
21657;SDS011;10990;48.174;9.782;2023-12-20T12:43:22;0.50;;;0.50;;
21657;SDS011;10990;48.174;9.782;2023-12-20T12:45:48;0.50;;;0.50;;
21657;SDS011;10990;48.174;9.782;2023-12-20T12:48:15;1.80;;;0.70;;
21657;SDS011;10990;48.174;9.782;2023-12-20T12:50:41;0.77;;;0.50;;
21657;SDS011;10990;48.174;9.782;2023-12-20T12:53:09;1.90;;;0.70;;
21657;SDS011;10990;48.174;9.782;2023-12-20T12:55:36;0.87;;;0.70;;
21657;SDS011;10990;48.174;9.782;2023-12-20T12:58:02;1.40;;;0.70;;
21657;SDS011;10990;48.174;9.782;2023-12-20T13:00:29;0.70;;;0.70;;
21657;SDS011;10990;48.174;9.782;2023-12-20T13:02:55;0.80;;;0.80;;
21657;SDS011;10990;48.174;9.782;2023-12-20T13:05:21;0.83;;;0.83;;
21657;SDS011;10990;48.174;9.782;2023-12-20T13:07:47;1.87;;;0.80;;
21657;SDS011;10990;48.174;9.782;2023-12-20T13:10:16;0.80;;;0.80;;
21657;SDS011;10990;48.174;9.782;2023-12-20T13:12:43;0.80;;;0.80;;
21657;SDS011;10990;48.174;9.782;2023-12-20T13:15:09;0.97;;;0.80;;
21657;SDS011;10990;48.174;9.782;2023-12-20T13:17:36;1.57;;;0.90;;
21657;SDS011;10990;48.174;9.782;2023-12-20T13:20:05;1.37;;;0.80;;
21657;SDS011;10990;48.174;9.782;2023-12-20T13:22:34;1.47;;;1.00;;
21657;SDS011;10990;48.174;9.782;2023-12-20T13:25:02;1.80;;;0.90;;
21657;SDS011;10990;48.174;9.782;2023-12-20T13:27:34;1.10;;;0.90;;
21657;SDS011;10990;48.174;9.782;2023-12-20T13:30:02;1.03;;;0.97;;
21657;SDS011;10990;48.174;9.782;2023-12-20T13:32:29;1.70;;;1.20;;
21657;SDS011;10990;48.174;9.782;2023-12-20T13:34:56;7.43;;;4.10;;
21657;SDS011;10990;48.174;9.782;2023-12-20T13:37:23;6.37;;;3.30;;
21657;SDS011;10990;48.174;9.782;2023-12-20T13:39:49;2.40;;;1.90;;
21657;SDS011;10990;48.174;9.782;2023-12-20T13:42:15;1.70;;;1.57;;
21657;SDS011;10990;48.174;9.782;2023-12-20T13:44:44;2.70;;;2.30;;
21657;SDS011;10990;48.174;9.782;2023-12-20T13:47:10;5.63;;;2.60;;
21657;SDS011;10990;48.174;9.782;2023-12-20T13:49:37;4.97;;;2.30;;
21657;SDS011;10990;48.174;9.782;2023-12-20T13:52:03;4.33;;;2.23;;
21657;SDS011;10990;48.174;9.782;2023-12-20T13:54:29;2.50;;;1.90;;
21657;SDS011;10990;48.174;9.782;2023-12-20T13:56:55;2.70;;;1.70;;
21657;SDS011;10990;48.174;9.782;2023-12-20T13:59:21;2.10;;;1.43;;
21657;SDS011;10990;48.174;9.782;2023-12-20T14:01:50;2.20;;;1.70;;
21657;SDS011;10990;48.174;9.782;2023-12-20T14:04:16;3.93;;;1.80;;
21657;SDS011;10990;48.174;9.782;2023-12-20T14:06:43;3.80;;;2.23;;
21657;SDS011;10990;48.174;9.782;2023-12-20T14:09:09;7.93;;;4.13;;
21657;SDS011;10990;48.174;9.782;2023-12-20T14:11:35;6.40;;;3.03;;
21657;SDS011;10990;48.174;9.782;2023-12-20T14:14:01;5.80;;;3.00;;
21657;SDS011;10990;48.174;9.782;2023-12-20T14:16:27;3.77;;;2.03;;
21657;SDS011;10990;48.174;9.782;2023-12-20T14:18:56;1.90;;;1.30;;
21657;SDS011;10990;48.174;9.782;2023-12-20T14:21:23;2.03;;;1.30;;
21657;SDS011;10990;48.174;9.782;2023-12-20T14:23:49;3.07;;;1.60;;
21657;SDS011;10990;48.174;9.782;2023-12-20T14:26:16;4.03;;;1.50;;
21657;SDS011;10990;48.174;9.782;2023-12-20T14:28:42;1.73;;;1.00;;
21657;SDS011;10990;48.174;9.782;2023-12-20T14:31:08;4.07;;;1.80;;
21657;SDS011;10990;48.174;9.782;2023-12-20T14:33:35;2.47;;;1.77;;
21657;SDS011;10990;48.174;9.782;2023-12-20T14:36:04;3.10;;;1.60;;
21657;SDS011;10990;48.174;9.782;2023-12-20T14:38:32;5.10;;;1.60;;
21657;SDS011;10990;48.174;9.782;2023-12-20T14:40:58;3.30;;;1.30;;
21657;SDS011;10990;48.174;9.782;2023-12-20T14:43:25;4.23;;;1.27;;
21657;SDS011;10990;48.174;9.782;2023-12-20T14:45:52;5.80;;;1.60;;